Time;durP1;ratioP1;P1;durP2;ratioP2;P2;SDS_P1;SDS_P2;PMS_P1;PMS_P2;Temp;Humidity;BMP_temperature;BMP_pressure;BME280_temperature;BME280_humidity;BME280_pressure;Samples;Min_cycle;Max_cycle;Signal;HPM_P1;HPM_P2
2022/12/06 00:02:06;;;;;;;6.65;5.63;;;2.70;99.90;;;;;;5002020;28;20037;-31
2022/12/06 00:04:32;;;;;;;6.72;5.25;;;2.80;99.90;;;;;;4993089;28;20030;-32
2022/12/06 00:06:58;;;;;;;11.00;6.57;;;2.80;99.90;;;;;;5005261;28;20073;-33
2022/12/06 00:09:29;;;;;;;9.00;5.82;;;2.80;99.90;;;;;;4976645;28;20034;-32
2022/12/06 00:11:55;;;;;;;10.38;5.72;;;2.70;99.90;;;;;;5003647;28;20406;-34
2022/12/06 00:14:22;;;;;;;7.78;5.00;;;2.70;99.90;;;;;;5001533;28;20042;-32
2022/12/06 00:16:48;;;;;;;8.63;6.18;;;2.70;99.90;;;;;;5002997;28;20101;-30
2022/12/06 00:19:16;;;;;;;8.20;5.63;;;2.60;99.90;;;;;;5001889;28;20708;-31
2022/12/06 00:21:43;;;;;;;12.32;7.07;;;2.70;99.90;;;;;;5003740;28;20104;-34
2022/12/06 00:24:12;;;;;;;8.45;5.90;;;2.70;99.90;;;;;;5002135;28;20566;-31
2022/12/06 00:26:40;;;;;;;8.43;5.38;;;2.70;99.90;;;;;;5005820;28;20029;-31
2022/12/06 00:29:07;;;;;;;11.30;5.63;;;2.70;99.90;;;;;;5006274;28;20514;-32
2022/12/06 00:31:34;;;;;;;9.30;6.75;;;2.60;99.90;;;;;;5002078;28;20026;-31
2022/12/06 00:34:00;;;;;;;7.80;5.20;;;2.60;99.90;;;;;;5006662;28;20018;-31
2022/12/06 00:36:28;;;;;;;9.68;6.47;;;2.50;99.90;;;;;;5005950;28;20495;-30
2022/12/06 00:38:54;;;;;;;8.30;5.82;;;2.50;99.90;;;;;;5005002;28;20034;-30
2022/12/06 00:41:22;;;;;;;8.30;5.15;;;2.60;99.90;;;;;;5006448;28;20594;-31
2022/12/06 00:43:49;;;;;;;9.15;5.97;;;2.60;99.90;;;;;;5002193;28;20148;-34
2022/12/06 00:46:27;;;;;;;11.60;6.90;;;2.50;99.90;;;;;;5005385;28;20092;-31
2022/12/06 00:48:54;;;;;;;7.55;5.75;;;2.50;99.90;;;;;;5005040;28;20029;-30
2022/12/06 00:51:21;;;;;;;11.00;6.85;;;2.50;99.90;;;;;;5005684;28;20036;-33
2022/12/06 00:53:47;;;;;;;9.88;6.88;;;2.50;99.90;;;;;;5003917;28;20128;-31
2022/12/06 00:56:14;;;;;;;11.65;6.15;;;2.50;99.90;;;;;;5003441;28;20045;-31
2022/12/06 00:58:40;;;;;;;6.65;5.47;;;2.40;99.90;;;;;;5005933;28;20068;-33
2022/12/06 01:01:07;;;;;;;11.38;7.22;;;2.40;99.90;;;;;;5007212;28;20407;-31
2022/12/06 01:03:33;;;;;;;14.07;7.30;;;2.40;99.90;;;;;;5004562;28;20068;-31
2022/12/06 01:06:04;;;;;;;14.27;8.60;;;2.40;99.90;;;;;;5007105;28;20030;-31
2022/12/06 01:08:31;;;;;;;10.15;6.47;;;2.40;99.90;;;;;;5002513;28;20040;-31
2022/12/06 01:10:57;;;;;;;14.55;7.72;;;2.40;99.90;;;;;;5004755;28;20399;-31
2022/12/06 01:13:22;;;;;;;11.55;6.25;;;2.40;99.90;;;;;;5000922;28;20585;-30
2022/12/06 01:15:48;;;;;;;7.45;5.75;;;2.50;99.90;;;;;;5003659;28;20026;-31
2022/12/06 01:18:14;;;;;;;7.10;5.35;;;2.40;99.90;;;;;;5005188;28;20396;-32
2022/12/06 01:20:39;;;;;;;6.78;5.97;;;2.30;99.90;;;;;;5002264;28;20372;-31
2022/12/06 01:23:05;;;;;;;6.75;5.38;;;2.30;99.90;;;;;;5000034;28;21378;-34
2022/12/06 01:25:31;;;;;;;7.10;5.07;;;2.30;99.90;;;;;;5002693;28;20030;-34
2022/12/06 01:27:58;;;;;;;9.57;5.80;;;2.20;99.90;;;;;;5004656;28;20030;-31
2022/12/06 01:30:24;;;;;;;8.30;6.25;;;2.10;99.90;;;;;;4999278;28;20117;-31
2022/12/06 01:32:49;;;;;;;7.15;4.63;;;2.00;99.90;;;;;;5003462;28;20046;-31
2022/12/06 01:35:15;;;;;;;8.93;5.13;;;2.00;99.90;;;;;;5002244;28;20465;-31
2022/12/06 01:37:41;;;;;;;9.27;5.70;;;2.00;99.90;;;;;;5002354;28;20038;-31
2022/12/06 01:40:07;;;;;;;8.70;6.10;;;2.10;99.90;;;;;;5003236;28;20030;-33
2022/12/06 01:42:32;;;;;;;9.00;5.50;;;2.10;99.90;;;;;;5002210;28;20111;-32
2022/12/06 01:44:58;;;;;;;10.25;6.10;;;2.10;99.90;;;;;;5003190;28;21609;-30
2022/12/06 01:47:36;;;;;;;8.07;5.85;;;2.10;99.90;;;;;;5005636;28;20168;-31
2022/12/06 01:50:16;;;;;;;8.27;5.68;;;2.10;99.90;;;;;;4999619;28;20054;-34
2022/12/06 01:52:47;;;;;;;7.93;5.07;;;2.10;99.90;;;;;;5000688;28;20149;-31
2022/12/06 01:55:14;;;;;;;9.35;5.13;;;2.20;99.90;;;;;;5000703;28;20034;-38
2022/12/06 01:57:40;;;;;;;7.35;4.78;;;2.20;99.90;;;;;;5001904;28;20060;-31
2022/12/06 02:00:06;;;;;;;7.70;5.35;;;2.10;99.90;;;;;;5000624;28;20057;-31
2022/12/06 02:02:32;;;;;;;14.13;5.63;;;2.10;99.90;;;;;;4998127;28;20037;-39
2022/12/06 02:04:59;;;;;;;8.38;5.38;;;2.00;99.90;;;;;;5008049;28;20056;-38
2022/12/06 02:07:26;;;;;;;7.60;5.63;;;2.00;99.90;;;;;;5004279;28;20049;-38
2022/12/06 02:09:53;;;;;;;8.13;5.28;;;1.90;99.90;;;;;;5004024;28;20022;-37
2022/12/06 02:12:18;;;;;;;9.95;5.95;;;1.90;99.90;;;;;;5007022;28;20121;-37
2022/12/06 02:14:49;;;;;;;6.65;5.38;;;1.90;99.90;;;;;;5002370;28;20566;-36
2022/12/06 02:17:51;;;;;;;8.35;4.82;;;1.80;99.90;;;;;;5004284;28;20484;-37
2022/12/06 02:20:32;;;;;;;6.45;4.57;;;1.60;99.90;;;;;;5004290;28;20083;-36
2022/12/06 02:23:38;;;;;;;6.25;5.30;;;1.60;99.90;;;;;;5002702;28;20034;-34
2022/12/06 02:26:19;;;;;;;6.07;5.18;;;1.40;99.90;;;;;;5001603;28;20057;-35
2022/12/06 02:29:08;;;;;;;5.65;4.28;;;1.40;99.90;;;;;;5017384;28;20030;-36
2022/12/06 02:31:40;;;;;;;6.45;4.80;;;1.40;99.90;;;;;;5003509;28;20061;-35
2022/12/06 02:34:49;;;;;;;9.45;4.90;;;1.50;99.90;;;;;;5002416;28;20118;-39
2022/12/06 02:37:22;;;;;;;9.63;4.53;;;1.40;99.90;;;;;;5002212;28;20580;-39
2022/12/06 02:39:56;;;;;;;6.75;4.55;;;1.50;99.90;;;;;;5005578;28;20038;-39
2022/12/06 02:42:48;;;;;;;9.05;5.97;;;1.60;99.90;;;;;;5007392;28;20087;-39
2022/12/06 02:45:19;;;;;;;6.38;5.55;;;1.60;99.90;;;;;;5002540;28;20042;-36
2022/12/06 02:47:47;;;;;;;10.85;5.53;;;1.60;99.90;;;;;;5005362;28;20031;-38
2022/12/06 02:50:19;;;;;;;4.10;3.85;;;1.70;99.90;;;;;;5003695;28;20052;-39
2022/12/06 02:52:48;;;;;;;6.38;4.43;;;1.50;99.90;;;;;;5004084;28;20026;-38
2022/12/06 02:55:16;;;;;;;7.38;5.07;;;1.50;99.90;;;;;;5005847;28;20026;-38
2022/12/06 02:57:48;;;;;;;9.15;5.75;;;1.40;99.90;;;;;;5009482;28;20033;-38
2022/12/06 03:00:36;;;;;;;10.95;6.88;;;1.50;99.90;;;;;;5007741;28;20065;-39
2022/12/06 03:03:24;;;;;;;7.93;5.35;;;1.40;99.90;;;;;;5006046;28;20561;-39
2022/12/06 03:06:01;;;;;;;7.77;5.70;;;1.50;99.90;;;;;;5005956;28;20507;-37
2022/12/06 03:08:48;;;;;;;8.90;5.57;;;1.60;99.90;;;;;;5008510;28;20303;-39
2022/12/06 03:11:14;;;;;;;10.77;6.03;;;1.70;99.90;;;;;;5006765;28;20022;-38
2022/12/06 03:13:51;;;;;;;8.02;5.40;;;1.60;99.90;;;;;;5006491;28;20022;-39
2022/12/06 03:16:27;;;;;;;9.70;5.97;;;1.70;99.90;;;;;;5006376;28;20065;-38
2022/12/06 03:19:10;;;;;;;13.00;5.13;;;1.70;99.90;;;;;;5003014;28;20100;-36
2022/12/06 03:21:46;;;;;;;9.70;6.50;;;1.80;99.90;;;;;;4999779;28;20053;-37
2022/12/06 03:24:14;;;;;;;12.63;7.20;;;1.80;99.90;;;;;;5004188;28;20075;-39
2022/12/06 03:26:43;;;;;;;11.43;5.75;;;1.90;99.90;;;;;;5006049;28;20045;-38
2022/12/06 03:29:11;;;;;;;11.75;6.15;;;1.90;99.90;;;;;;5004032;28;20046;-36
2022/12/06 03:31:39;;;;;;;9.20;5.88;;;2.00;99.90;;;;;;5004479;28;20403;-37
2022/12/06 03:34:23;;;;;;;10.18;6.55;;;1.90;99.90;;;;;;5002261;28;20069;-38
2022/12/06 03:36:50;;;;;;;9.85;6.32;;;2.00;99.90;;;;;;5004215;28;20466;-38
2022/12/06 03:39:40;;;;;;;7.45;5.75;;;2.00;99.90;;;;;;5004972;28;20034;-40
2022/12/06 03:42:06;;;;;;;9.45;6.18;;;2.00;99.90;;;;;;5004455;28;20060;-35
2022/12/06 03:44:33;;;;;;;12.23;6.10;;;2.00;99.90;;;;;;5005748;28;20034;-40
2022/12/06 03:47:05;;;;;;;7.97;6.20;;;2.00;99.90;;;;;;5004403;28;20153;-39
2022/12/06 03:49:37;;;;;;;8.30;6.55;;;2.00;99.90;;;;;;5005648;28;20030;-40
2022/12/06 03:52:03;;;;;;;9.80;6.07;;;2.10;99.90;;;;;;5003406;28;20081;-37
2022/12/06 03:54:29;;;;;;;10.55;7.22;;;2.10;99.90;;;;;;5003850;28;20029;-40
2022/12/06 03:56:55;;;;;;;9.88;7.07;;;2.10;99.90;;;;;;5005172;28;20537;-39
2022/12/06 03:59:20;;;;;;;10.70;6.35;;;2.20;99.90;;;;;;5006127;28;20034;-39
2022/12/06 04:01:46;;;;;;;8.93;5.72;;;2.20;99.90;;;;;;5002101;28;20026;-36
2022/12/06 04:04:12;;;;;;;10.68;6.47;;;2.10;99.90;;;;;;5004400;28;20056;-39
2022/12/06 04:06:37;;;;;;;7.32;5.30;;;2.10;99.90;;;;;;5006311;28;20069;-39
2022/12/06 04:11:47;;;;;;;11.50;6.82;;;2.00;99.90;;;;;;5003482;28;20040;-37
2022/12/06 04:14:13;;;;;;;8.60;6.47;;;2.00;99.90;;;;;;5005194;28;20026;-39
2022/12/06 04:19:23;;;;;;;13.68;6.50;;;2.10;99.90;;;;;;5004154;28;20045;-39
2022/12/06 04:24:32;;;;;;;9.10;6.65;;;2.10;99.90;;;;;;5001859;28;20061;-36
2022/12/06 04:28:40;;;;;;;10.13;6.65;;;2.10;99.90;;;;;;5004647;28;20058;-39
2022/12/06 04:40:46;;;;;;;12.40;6.53;;;2.20;99.90;;;;;;5007840;28;20113;-37
2022/12/06 04:45:56;;;;;;;9.63;6.07;;;2.10;99.90;;;;;;5006493;28;20037;-37
2022/12/06 04:48:22;;;;;;;10.60;6.30;;;2.20;99.90;;;;;;5002304;28;20426;-39
2022/12/06 04:50:49;;;;;;;8.70;5.50;;;2.20;99.90;;;;;;5004155;28;20251;-37
2022/12/06 04:53:15;;;;;;;10.25;6.40;;;2.20;99.90;;;;;;5000943;28;20525;-44
2022/12/06 04:55:45;;;;;;;13.30;7.40;;;2.10;99.90;;;;;;5003623;28;20026;-39
2022/12/06 04:58:10;;;;;;;9.88;7.10;;;2.20;99.90;;;;;;4999114;28;20034;-36
2022/12/06 05:00:36;;;;;;;9.65;6.57;;;2.20;99.90;;;;;;5005788;28;20063;-39
2022/12/06 05:03:02;;;;;;;9.20;6.10;;;2.10;99.90;;;;;;5003525;28;20033;-40
2022/12/06 05:05:27;;;;;;;11.45;6.82;;;2.10;99.90;;;;;;5002985;28;20030;-38
2022/12/06 05:07:53;;;;;;;9.32;5.88;;;2.10;99.90;;;;;;5006160;28;20056;-39
2022/12/06 05:10:18;;;;;;;11.13;6.35;;;2.20;99.90;;;;;;5001640;28;20483;-39
2022/12/06 05:12:44;;;;;;;12.48;7.15;;;2.10;99.90;;;;;;5002487;28;20101;-36
2022/12/06 05:15:10;;;;;;;11.02;6.35;;;2.10;99.90;;;;;;5005536;28;20482;-39
2022/12/06 05:17:35;;;;;;;10.80;6.40;;;2.10;99.90;;;;;;5003034;28;20030;-39
2022/12/06 05:20:01;;;;;;;11.43;7.57;;;2.10;99.90;;;;;;4997871;28;20038;-37
2022/12/06 05:22:31;;;;;;;8.98;6.00;;;2.10;99.90;;;;;;5000435;28;20659;-39
2022/12/06 05:24:57;;;;;;;12.70;6.88;;;2.10;99.90;;;;;;5004281;28;20053;-38
2022/12/06 05:27:23;;;;;;;12.10;6.70;;;2.00;99.90;;;;;;5003166;28;20522;-38
2022/12/06 05:29:48;;;;;;;10.73;6.93;;;2.00;99.90;;;;;;4999724;28;20034;-39
2022/12/06 05:32:14;;;;;;;10.60;7.03;;;1.90;99.90;;;;;;5000537;28;20804;-39
2022/12/06 05:34:40;;;;;;;10.23;6.47;;;1.90;99.90;;;;;;5001384;28;20425;-38
2022/12/06 05:37:05;;;;;;;9.93;6.70;;;1.80;99.90;;;;;;5002872;28;20505;-39
2022/12/06 05:39:31;;;;;;;11.02;6.53;;;1.70;99.90;;;;;;5002370;28;20030;-39
2022/12/06 05:41:57;;;;;;;8.40;6.28;;;1.50;99.90;;;;;;5008852;28;20049;-38
2022/12/06 05:44:22;;;;;;;10.57;7.20;;;1.50;99.90;;;;;;5019909;28;20055;-39
2022/12/06 05:46:48;;;;;;;8.43;5.82;;;1.40;99.90;;;;;;5010054;28;20060;-40
2022/12/06 05:49:13;;;;;;;11.48;7.38;;;1.40;99.90;;;;;;5006485;28;20456;-38
2022/12/06 05:51:39;;;;;;;10.02;6.22;;;1.30;99.90;;;;;;5005162;28;20026;-37
2022/12/06 05:54:05;;;;;;;10.02;6.32;;;1.20;99.90;;;;;;5009958;28;20049;-36
2022/12/06 05:56:32;;;;;;;10.20;6.28;;;1.20;99.90;;;;;;5004884;28;20030;-38
2022/12/06 05:58:57;;;;;;;10.88;6.28;;;1.10;99.90;;;;;;5000624;28;20558;-38
2022/12/06 06:01:23;;;;;;;11.98;7.05;;;1.10;99.90;;;;;;5003509;28;20121;-39
2022/12/06 06:03:49;;;;;;;10.68;6.72;;;1.10;99.90;;;;;;5007672;28;20372;-40
2022/12/06 06:06:14;;;;;;;9.48;5.90;;;1.00;99.90;;;;;;5003880;28;20073;-37
2022/12/06 06:08:40;;;;;;;11.77;7.40;;;1.00;99.90;;;;;;5022545;28;20403;-37
2022/12/06 06:11:06;;;;;;;13.10;7.03;;;1.10;99.90;;;;;;5003015;28;20030;-39
2022/12/06 06:13:31;;;;;;;15.10;7.50;;;1.10;99.90;;;;;;5005179;28;21441;-39
2022/12/06 06:15:57;;;;;;;14.63;7.97;;;1.00;99.90;;;;;;5007103;28;20383;-35
2022/12/06 06:18:23;;;;;;;13.82;6.93;;;1.00;99.90;;;;;;5005434;28;20343;-39
2022/12/06 06:20:55;;;;;;;9.13;5.63;;;0.90;99.90;;;;;;5006032;28;20080;-39
2022/12/06 06:23:21;;;;;;;15.07;6.85;;;0.80;99.90;;;;;;5000506;28;20489;-39
2022/12/06 06:25:47;;;;;;;14.68;7.88;;;0.80;99.90;;;;;;5006777;28;20037;-39
2022/12/06 06:28:14;;;;;;;12.32;7.07;;;0.90;99.90;;;;;;4998290;28;20507;-39
2022/12/06 06:30:39;;;;;;;3.45;2.60;;;0.90;99.90;;;;;;5001039;28;20026;-39
2022/12/06 06:33:05;;;;;;;7.40;4.07;;;0.70;99.90;;;;;;5005563;28;20032;-37
2022/12/06 06:35:30;;;;;;;9.88;5.97;;;0.50;99.90;;;;;;5003000;28;20694;-38
2022/12/06 06:37:56;;;;;;;12.05;7.15;;;0.40;99.90;;;;;;5004076;28;20034;-37
2022/12/06 06:40:22;;;;;;;8.50;4.35;;;0.50;99.90;;;;;;5003078;28;20034;-38
2022/12/06 06:42:47;;;;;;;7.32;5.43;;;0.50;99.90;;;;;;5003710;28;20040;-39
2022/12/06 06:45:13;;;;;;;9.32;4.63;;;0.40;99.90;;;;;;5002939;28;20057;-36
2022/12/06 06:47:39;;;;;;;10.02;5.88;;;0.40;99.90;;;;;;4997909;28;20697;-37
2022/12/06 06:50:06;;;;;;;11.88;7.07;;;0.50;99.90;;;;;;5002440;28;20359;-37
2022/12/06 06:52:31;;;;;;;13.93;7.88;;;0.50;99.90;;;;;;5014181;28;20058;-37
2022/12/06 06:54:57;;;;;;;9.32;6.07;;;0.60;99.90;;;;;;5003583;28;20022;-37
2022/12/06 06:57:23;;;;;;;15.20;7.25;;;0.60;99.90;;;;;;5005627;28;20430;-39
2022/12/06 06:59:49;;;;;;;7.20;5.32;;;0.70;99.90;;;;;;5003340;28;20025;-35
2022/12/06 07:02:16;;;;;;;12.80;8.13;;;0.60;99.90;;;;;;5002081;28;20034;-37
2022/12/06 07:04:43;;;;;;;10.18;6.43;;;0.60;99.90;;;;;;4885406;28;20034;-36
2022/12/06 07:07:10;;;;;;;14.00;8.45;;;0.60;99.90;;;;;;5005488;28;20077;-39
2022/12/06 07:09:37;;;;;;;14.65;8.05;;;0.60;99.90;;;;;;5014528;28;20037;-37
2022/12/06 07:12:03;;;;;;;14.90;6.75;;;0.60;99.90;;;;;;5004889;28;20042;-38
2022/12/06 07:14:29;;;;;;;13.43;8.32;;;0.70;99.90;;;;;;5008229;28;20554;-38
2022/12/06 07:16:54;;;;;;;12.95;8.02;;;0.80;99.90;;;;;;5007170;28;20048;-39
2022/12/06 07:19:20;;;;;;;15.63;8.52;;;0.80;99.90;;;;;;5005220;28;20033;-39
2022/12/06 07:21:46;;;;;;;18.63;8.93;;;0.80;99.90;;;;;;5009548;28;20061;-39
2022/12/06 07:24:11;;;;;;;17.15;8.82;;;0.80;99.90;;;;;;5005712;28;20042;-37
2022/12/06 07:26:37;;;;;;;19.33;8.88;;;0.80;99.90;;;;;;5003178;28;20406;-39
2022/12/06 07:29:03;;;;;;;18.00;9.57;;;0.90;99.90;;;;;;5008691;28;20033;-39
2022/12/06 07:31:29;;;;;;;20.35;9.73;;;0.90;99.90;;;;;;5005110;28;20036;-38
2022/12/06 07:33:59;;;;;;;12.65;6.80;;;0.90;99.90;;;;;;5003722;28;20029;-38
2022/12/06 07:36:28;;;;;;;18.55;9.73;;;1.00;99.90;;;;;;5004707;28;20073;-37
2022/12/06 07:38:56;;;;;;;13.02;8.02;;;1.00;99.90;;;;;;5008552;28;20068;-37
2022/12/06 07:47:12;;;;;;;12.18;7.68;;;1.10;99.90;;;;;;4986004;28;20474;-38
2022/12/06 07:49:38;;;;;;;10.30;5.78;;;1.10;99.90;;;;;;4997664;28;20026;-36
2022/12/06 07:52:03;;;;;;;10.38;6.10;;;1.20;99.90;;;;;;5005477;28;20030;-39
2022/12/06 07:54:29;;;;;;;13.75;7.47;;;1.20;99.90;;;;;;5009476;28;20125;-39
2022/12/06 07:56:55;;;;;;;17.17;8.32;;;1.20;99.90;;;;;;5002884;28;20369;-39
2022/12/06 07:59:21;;;;;;;17.77;8.93;;;1.20;99.90;;;;;;5023544;28;20081;-36
2022/12/06 08:01:46;;;;;;;19.38;10.60;;;1.20;99.90;;;;;;5003911;28;20034;-36
2022/12/06 08:04:12;;;;;;;9.73;6.22;;;1.20;99.90;;;;;;5003415;28;20030;-38
2022/12/06 08:06:38;;;;;;;13.07;8.07;;;1.30;99.90;;;;;;5006615;28;20141;-38
2022/12/06 08:09:04;;;;;;;18.70;8.98;;;1.30;99.90;;;;;;5004447;28;20475;-39
2022/12/06 08:11:30;;;;;;;16.55;9.00;;;1.30;99.90;;;;;;5002301;28;20617;-33
2022/12/06 08:13:56;;;;;;;2.10;1.92;;;1.30;99.90;;;;;;5002266;28;20104;-34
2022/12/06 08:16:21;;;;;;;11.07;7.68;;;1.30;99.90;;;;;;5019912;28;20033;-35
2022/12/06 08:18:47;;;;;;;12.40;7.03;;;1.30;99.90;;;;;;5002180;28;20107;-35
2022/12/06 08:21:13;;;;;;;15.10;8.50;;;1.30;99.90;;;;;;4990691;28;21598;-33
2022/12/06 08:23:38;;;;;;;14.93;8.50;;;1.30;99.90;;;;;;4991710;28;20034;-38
2022/12/06 08:26:06;;;;;;;16.80;9.60;;;1.40;99.90;;;;;;5006529;28;20399;-37
2022/12/06 08:28:33;;;;;;;12.77;6.90;;;1.40;99.90;;;;;;5004080;28;20030;-36
2022/12/06 08:31:07;;;;;;;9.38;4.97;;;1.40;99.90;;;;;;5003904;28;20676;-38
2022/12/06 08:33:34;;;;;;;16.48;9.95;;;1.40;99.90;;;;;;5002067;28;20476;-36
2022/12/06 08:36:00;;;;;;;17.23;9.27;;;1.40;99.90;;;;;;5021011;28;20029;-38
2022/12/06 08:38:27;;;;;;;21.80;10.27;;;1.40;99.90;;;;;;5003597;28;20103;-39
2022/12/06 08:40:53;;;;;;;18.08;10.05;;;1.50;99.90;;;;;;5005791;28;20021;-35
2022/12/06 08:43:19;;;;;;;21.73;10.00;;;1.50;99.90;;;;;;5003426;28;20060;-37
2022/12/06 08:45:55;;;;;;;9.77;7.15;;;1.50;99.90;;;;;;5001086;28;20034;-38
2022/12/06 08:48:21;;;;;;;11.80;7.05;;;1.50;99.90;;;;;;5017276;28;20064;-35
2022/12/06 08:50:46;;;;;;;13.50;6.35;;;1.50;99.90;;;;;;5004052;28;20026;-37
2022/12/06 08:53:12;;;;;;;14.02;9.25;;;1.50;99.90;;;;;;5003772;28;20097;-38
2022/12/06 08:55:38;;;;;;;11.98;7.78;;;1.50;99.90;;;;;;5005358;28;20029;-38
2022/12/06 08:58:03;;;;;;;13.80;6.93;;;1.50;99.90;;;;;;5005035;28;20030;-37
2022/12/06 09:00:30;;;;;;;13.80;7.22;;;1.50;99.90;;;;;;5006184;28;20549;-36
2022/12/06 09:02:55;;;;;;;15.27;8.07;;;1.50;99.90;;;;;;5004112;28;20048;-38
2022/12/06 09:05:21;;;;;;;10.50;6.45;;;1.50;99.90;;;;;;5005371;28;20109;-38
2022/12/06 09:07:47;;;;;;;12.77;7.85;;;1.50;99.90;;;;;;5000601;28;20037;-36
2022/12/06 09:10:12;;;;;;;15.45;7.78;;;1.60;99.90;;;;;;5006282;28;20030;-35
2022/12/06 09:12:38;;;;;;;19.67;9.52;;;1.60;99.90;;;;;;5004128;28;20113;-39
2022/12/06 09:15:04;;;;;;;18.88;9.75;;;1.60;99.90;;;;;;5005257;28;20483;-37
2022/12/06 09:17:30;;;;;;;19.00;8.73;;;1.60;99.90;;;;;;5009525;28;20471;-38
2022/12/06 09:19:56;;;;;;;13.75;7.10;;;1.70;99.90;;;;;;5007868;28;20040;-39
2022/12/06 09:22:21;;;;;;;12.00;6.90;;;1.70;99.90;;;;;;5010512;28;20053;-39
2022/12/06 09:24:47;;;;;;;13.32;8.40;;;1.70;99.90;;;;;;5004310;28;20033;-39
2022/12/06 09:27:13;;;;;;;17.60;9.30;;;1.70;99.90;;;;;;5007870;28;20079;-39
2022/12/06 09:29:38;;;;;;;20.58;11.20;;;1.80;99.90;;;;;;5010027;28;20055;-39
2022/12/06 09:32:04;;;;;;;20.40;9.93;;;1.80;99.90;;;;;;5006307;28;20031;-38
2022/12/06 09:34:30;;;;;;;11.05;6.43;;;1.80;99.90;;;;;;5008388;28;20057;-39
2022/12/06 09:37:03;;;;;;;21.70;10.13;;;1.90;99.90;;;;;;5008956;28;20057;-39
2022/12/06 09:39:32;;;;;;;22.23;10.38;;;1.90;99.90;;;;;;5009359;28;20045;-40
2022/12/06 09:42:14;;;;;;;20.35;10.15;;;1.90;99.90;;;;;;5007207;28;20068;-40
2022/12/06 09:45:28;;;;;;;;;;;;;;;;;;;;;
2022/12/06 09:48:08;;;;;;;17.10;9.57;;;2.00;99.90;;;;;;5007077;28;20026;-39
2022/12/06 09:50:52;;;;;;;13.25;7.50;;;2.10;99.90;;;;;;5008053;28;20584;-39
2022/12/06 09:53:45;;;;;;;9.60;6.18;;;2.00;99.90;;;;;;5021636;28;20546;-38
2022/12/06 09:56:16;;;;;;;14.30;8.63;;;2.00;99.90;;;;;;5007284;28;20057;-40
2022/12/06 09:59:09;;;;;;;16.90;9.85;;;2.00;99.90;;;;;;5004396;28;20034;-37
2022/12/06 10:02:32;;;;;;;16.00;9.13;;;2.10;99.90;;;;;;5005317;28;20034;-38
2022/12/06 10:05:29;;;;;;;16.75;8.98;;;2.10;99.90;;;;;;5001687;28;20081;-40
2022/12/06 10:08:03;;;;;;;16.00;9.00;;;2.20;99.90;;;;;;5005854;28;20042;-39
2022/12/06 10:11:01;;;;;;;17.73;9.05;;;2.20;99.90;;;;;;5008147;28;20453;-38
2022/12/06 10:13:26;;;;;;;16.90;8.85;;;2.30;99.90;;;;;;4986424;28;20068;-37
2022/12/06 10:16:11;;;;;;;12.25;6.78;;;2.30;99.90;;;;;;5002199;28;20026;-39
2022/12/06 10:18:55;;;;;;;17.85;9.73;;;2.40;99.90;;;;;;5001195;28;20030;-39
2022/12/06 10:21:56;;;;;;;5.40;1.98;;;2.40;99.90;;;;;;5008837;28;20105;-39
2022/12/06 10:24:47;;;;;;;13.07;7.47;;;2.30;99.90;;;;;;4986788;28;20045;-40
2022/12/06 10:27:35;;;;;;;17.42;8.82;;;2.30;99.90;;;;;;5000959;28;20407;-40
2022/12/06 10:30:09;;;;;;;13.05;8.70;;;2.40;99.90;;;;;;5002909;28;20403;-40
2022/12/06 10:32:41;;;;;;;8.88;5.82;;;2.40;99.90;;;;;;5003467;28;20682;-40
2022/12/06 10:35:17;;;;;;;12.30;7.90;;;2.40;99.90;;;;;;5007561;28;20037;-36
2022/12/06 10:37:49;;;;;;;11.07;7.03;;;2.40;99.90;;;;;;5006902;28;20022;-39
2022/12/06 10:40:58;;;;;;;16.23;9.32;;;2.40;99.90;;;;;;5019305;28;20030;-40
2022/12/06 10:43:31;;;;;;;18.63;8.45;;;2.50;99.90;;;;;;5004300;28;20034;-38
2022/12/06 10:49:26;;;;;;;15.07;8.50;;;2.50;99.90;;;;;;5007171;28;20041;-35
2022/12/06 10:52:16;;;;;;;11.05;7.00;;;2.60;99.90;;;;;;5004277;28;20432;-40
2022/12/06 10:54:48;;;;;;;9.40;7.40;;;2.60;99.90;;;;;;5007286;28;20018;-40
2022/12/06 10:57:22;;;;;;;7.20;6.32;;;2.60;99.90;;;;;;5016865;28;20034;-39
2022/12/06 10:59:57;;;;;;;11.45;6.25;;;2.70;99.90;;;;;;5006871;28;20029;-36
2022/12/06 11:02:46;;;;;;;14.50;8.25;;;2.70;99.90;;;;;;5004749;28;20030;-39
2022/12/06 11:05:30;;;;;;;10.00;5.65;;;2.70;99.90;;;;;;4998228;28;20037;-39
2022/12/06 11:08:16;;;;;;;14.80;8.98;;;2.70;99.90;;;;;;5004269;28;20069;-39
2022/12/06 11:10:44;;;;;;;15.32;8.40;;;2.70;99.90;;;;;;5005143;28;20018;-40
2022/12/06 11:13:36;;;;;;;9.10;5.43;;;2.70;99.90;;;;;;5008819;28;20046;-40
2022/12/06 11:16:25;;;;;;;15.60;9.13;;;2.80;99.90;;;;;;5005752;28;20125;-37
2022/12/06 11:18:54;;;;;;;8.15;5.10;;;2.80;99.90;;;;;;5006341;28;20031;-40
2022/12/06 11:21:30;;;;;;;7.10;4.05;;;2.80;99.90;;;;;;5003391;28;20046;-38
2022/12/06 11:24:02;;;;;;;9.40;4.20;;;2.90;99.90;;;;;;5005984;28;20480;-39
2022/12/06 11:26:40;;;;;;;13.52;6.72;;;2.90;99.90;;;;;;5004952;28;20130;-38
2022/12/06 11:29:11;;;;;;;12.70;6.85;;;2.80;99.90;;;;;;5005847;28;20700;-37
2022/12/06 11:31:45;;;;;;;6.32;4.95;;;2.80;99.90;;;;;;5000727;28;20167;-37
2022/12/06 11:34:20;;;;;;;13.88;7.28;;;2.90;99.90;;;;;;5004813;28;20037;-38
2022/12/06 11:36:50;;;;;;;7.78;5.50;;;2.80;99.90;;;;;;5016966;28;20084;-38
2022/12/06 11:39:16;;;;;;;11.95;7.32;;;2.80;99.90;;;;;;5016618;28;20483;-40
2022/12/06 11:41:48;;;;;;;9.43;6.28;;;2.90;99.90;;;;;;5004315;28;20040;-39
2022/12/06 11:44:20;;;;;;;10.30;6.55;;;2.80;99.90;;;;;;5006375;28;20037;-40
2022/12/06 11:46:57;;;;;;;10.25;7.80;;;2.90;99.90;;;;;;5006213;28;20485;-39
2022/12/06 11:49:40;;;;;;;12.35;6.93;;;2.90;99.90;;;;;;5016505;28;20537;-39
2022/12/06 11:52:44;;;;;;;11.30;6.30;;;2.90;99.90;;;;;;5003955;28;20042;-39
2022/12/06 11:55:20;;;;;;;13.05;7.40;;;2.90;99.90;;;;;;5008213;28;20120;-40
2022/12/06 11:57:59;;;;;;;11.90;7.05;;;2.90;99.90;;;;;;5004751;28;20053;-39
2022/12/06 12:00:26;;;;;;;14.38;7.75;;;3.00;99.90;;;;;;5002299;28;20429;-40
2022/12/06 12:02:54;;;;;;;6.35;4.85;;;2.90;99.90;;;;;;5006120;28;20042;-39
2022/12/06 12:05:23;;;;;;;9.13;5.10;;;2.90;99.90;;;;;;5002235;28;20046;-39
2022/12/06 12:08:14;;;;;;;8.15;5.65;;;2.90;99.90;;;;;;5019246;28;20043;-40
2022/12/06 12:10:42;;;;;;;11.93;7.20;;;2.90;99.90;;;;;;5006629;28;20044;-39
2022/12/06 12:16:25;;;;;;;14.68;6.97;;;3.00;99.90;;;;;;4993456;28;20038;-45
2022/12/06 12:18:55;;;;;;;12.82;7.47;;;3.00;99.90;;;;;;5005953;28;20509;-39
2022/12/06 12:21:36;;;;;;;16.90;8.07;;;3.00;99.90;;;;;;5006226;28;20034;-38
2022/12/06 12:24:03;;;;;;;8.88;6.30;;;3.00;99.90;;;;;;5004745;28;20042;-39
2022/12/06 12:26:41;;;;;;;10.38;6.65;;;3.00;99.90;;;;;;5007446;28;20040;-36
2022/12/06 12:29:33;;;;;;;9.00;4.68;;;3.10;99.90;;;;;;5008154;28;20127;-39
2022/12/06 12:31:58;;;;;;;14.38;7.82;;;3.00;99.90;;;;;;5003676;28;20072;-38
2022/12/06 12:34:26;;;;;;;10.43;6.90;;;3.10;99.90;;;;;;5001322;28;20543;-38
2022/12/06 12:37:03;;;;;;;12.10;7.05;;;3.00;99.90;;;;;;5002889;28;20027;-39
2022/12/06 12:39:44;;;;;;;10.07;5.47;;;3.10;99.90;;;;;;5001151;28;20101;-39
2022/12/06 12:42:32;;;;;;;11.98;7.18;;;3.10;99.90;;;;;;5004487;28;20033;-39
2022/12/06 12:45:01;;;;;;;10.80;7.32;;;3.10;99.90;;;;;;4898050;28;20550;-40
2022/12/06 12:47:27;;;;;;;9.82;6.68;;;3.10;99.90;;;;;;5004878;28;20034;-38
2022/12/06 12:50:13;;;;;;;12.98;7.57;;;3.20;99.90;;;;;;5007697;28;20022;-37
2022/12/06 12:52:40;;;;;;;11.75;6.32;;;3.20;99.90;;;;;;5003571;28;20446;-39
2022/12/06 12:55:14;;;;;;;10.23;6.75;;;3.20;99.90;;;;;;5007051;28;20030;-39
2022/12/06 12:57:43;;;;;;;5.72;3.85;;;3.20;99.90;;;;;;5004694;28;20034;-38
2022/12/06 13:00:21;;;;;;;12.35;7.22;;;3.20;99.90;;;;;;5005612;28;20034;-38
2022/12/06 13:02:55;;;;;;;11.70;6.65;;;3.20;99.90;;;;;;5005433;28;20074;-38
2022/12/06 13:05:26;;;;;;;10.25;5.65;;;3.20;99.90;;;;;;5006666;28;20483;-39
2022/12/06 13:07:58;;;;;;;9.27;6.53;;;3.20;99.90;;;;;;5001560;28;20057;-39
2022/12/06 13:10:34;;;;;;;13.70;7.18;;;3.20;99.90;;;;;;5007314;28;20037;-38
2022/12/06 13:13:13;;;;;;;11.73;6.18;;;3.20;99.90;;;;;;5007985;28;20478;-39
2022/12/06 13:15:51;;;;;;;11.07;6.68;;;3.20;99.90;;;;;;5005410;28;20042;-39
2022/12/06 13:18:21;;;;;;;11.85;7.78;;;3.20;99.90;;;;;;5004999;28;20037;-39
2022/12/06 13:20:48;;;;;;;5.25;4.47;;;3.20;99.90;;;;;;5003108;28;20034;-39
2022/12/06 13:23:17;;;;;;;11.48;5.93;;;3.20;99.90;;;;;;5004825;28;20033;-38
2022/12/06 13:26:02;;;;;;;14.77;7.35;;;3.20;99.90;;;;;;5003479;28;20034;-38
2022/12/06 13:28:38;;;;;;;5.10;3.65;;;3.20;99.90;;;;;;5004232;28;20037;-39
2022/12/06 13:31:10;;;;;;;5.28;3.97;;;3.20;99.90;;;;;;5007621;28;20042;-38
2022/12/06 13:33:43;;;;;;;12.85;7.50;;;3.20;99.90;;;;;;5004564;28;20116;-38
2022/12/06 13:36:12;;;;;;;12.60;6.75;;;3.20;99.90;;;;;;5007066;28;20169;-39
2022/12/06 13:38:40;;;;;;;10.13;6.72;;;3.20;99.90;;;;;;5003873;28;20033;-38
2022/12/06 13:42:16;;;;;;;5.38;3.75;;;3.20;99.90;;;;;;5008482;28;20701;-38
2022/12/06 13:44:00;;;;;;;6.30;4.10;;;3.30;99.90;;;;;;5007037;28;20523;-39
2022/12/06 13:46:28;;;;;;;18.25;6.78;;;3.30;99.90;;;;;;5005170;28;20144;-39
2022/12/06 13:48:59;;;;;;;7.50;5.93;;;3.20;99.90;;;;;;5007051;28;20030;-39